Kahului, HI

2:48 AM HST on August 20, 2014 (GMT -1000)
Kahului | Change Station
CLOSE
Current Station
Airport
Location: Kahului,
Elevation: 49 ft
Nearby Weather Stations

Elev 49 ft 20.90 °N, 156.43 °W | Updated 54 minutes ago

Overcast
Overcast
75 °F
Feels Like 75 °F
N
9
Wind Variable Wind from NE

Today
High -- | Low -- °F
--% Chance of Precip.
Yesterday
High -- | Low -- °F
Precip. -- in
6:06 AM 6:51 PM
Waning Crescent, 22% visible
Pressure 29.98 in
Visibility 10.0 miles
Clouds Few 2200 ft
Scattered Clouds 4300 ft
Overcast 5500 ft
Dew Point 67 °F
Humidity 76%
Rainfall 0.00 in
Snow Depth Not available.
UV 0 out of 12
Pollen Not available.
Air Quality Not available.
Flu Activity Not available.
METAR PHOG 201154Z AUTO 04008KT 10SM FEW022 SCT043 OVC055 24/19 A2996 RMK AO2 SLP150 T02390194 10250 20233 58010 TSNO

More Conditions Fewer Conditions

Pressure 29.98 in
Visibility 10.0 miles
Clouds Few 2200 ft
Scattered Clouds 4300 ft
Overcast 5500 ft
Dew Point 67 °F
Humidity 76%
Rainfall 0.00 in
Snow Depth Not available.
UV 0 out of 12
Pollen Not available.
Air Quality Not available.
Flu Activity Not available.
METAR PHOG 201154Z AUTO 04008KT 10SM FEW022 SCT043 OVC055 24/19 A2996 RMK AO2 SLP150 T02390194 10250 20233 58010 TSNO

More Conditions Fewer Conditions

10-Day Weather Forecast

Almanac

Astronomy

Aug. 20, 2014 Rise Set
Actual Time 6:06 AM HST 6:51 PM HST
Civil Twilight 5:43 AM HST 7:14 PM HST
Nautical Twilight 5:16 AM HST 7:41 PM HST
Astronomical Twilight 4:49 AM HST 8:08 PM HST
Moon 2:08 AM HST 3:32 PM HST
Length of Visible Light 13h 30m
Length of Day
12h 45m
Tomorrow will be 1m 4s shorter.
Waning Crescent, 22% of the Moon is Illuminated
Today
Waning Crescent
Aug 25
New
Sep 2
First Quarter
Sep 8
Full
Sep 15
Last Quarter

Today's Extremes

State Highs State Lows

Community

WunderPhotos

Upload Photos

1,745,618 photos uploaded!

Nearby

Snow Depth

Station Depth Elevation
No new snow has been reported.

Earthquake Activity

City Distance Mag. Time & Date
No recent earthquake activity has been reported nearby.
Minimum magnitude displayed is 2.5.

Coastal Water Temperatures

Place Temperature
No Stations Reporting

Nearby Weather Stations